Time;durP1;ratioP1;P1;durP2;ratioP2;P2;SDS_P1;SDS_P2;PMS_P1;PMS_P2;Temp;Humidity;BMP_temperature;BMP_pressure;BME280_temperature;BME280_humidity;BME280_pressure;Samples;Min_cycle;Max_cycle;Signal;HPM_P1;HPM_P2
2022/05/05 00:00:14;;;;;;;14.33;9.27;;;;;10.10;101474.00;;;;10427732;28;20196;-77
2022/05/05 00:05:16;;;;;;;17.87;9.90;;;;;10.00;101482.00;;;;10425762;28;20254;-77
2022/05/05 00:15:38;;;;;;;13.10;9.60;;;;;9.90;101481.00;;;;10443916;28;20210;-77
2022/05/05 00:20:41;;;;;;;12.07;8.90;;;;;9.90;101482.00;;;;10441354;28;20229;-77
2022/05/05 00:25:43;;;;;;;15.77;9.83;;;;;9.80;101481.00;;;;10420581;28;20808;-77
2022/05/05 00:30:45;;;;;;;13.00;9.23;;;;;9.90;101477.00;;;;10396589;28;20276;-77
2022/05/05 00:35:47;;;;;;;13.23;9.73;;;;;10.10;101479.00;;;;10411084;28;20206;-78
2022/05/05 00:40:49;;;;;;;17.33;9.93;;;;;10.30;101476.00;;;;10410312;28;20201;-77
2022/05/05 00:45:51;;;;;;;12.43;8.43;;;;;10.40;101474.00;;;;10411000;28;20190;-77
2022/05/05 00:50:55;;;;;;;15.67;9.43;;;;;10.60;101473.00;;;;10426922;28;20199;-77
2022/05/05 00:56:09;;;;;;;14.30;9.90;;;;;10.70;101474.00;;;;10472486;28;20224;-77
2022/05/05 01:01:14;;;;;;;18.30;11.27;;;;;10.80;101472.00;;;;10435654;28;20205;-77
2022/05/05 01:06:16;;;;;;;16.17;11.00;;;;;10.90;101481.00;;;;10426818;28;20195;-77
2022/05/05 01:11:22;;;;;;;18.43;11.43;;;;;11.10;101473.00;;;;10468648;28;20280;-77
2022/05/05 01:16:24;;;;;;;18.73;11.43;;;;;11.30;101472.00;;;;10394727;28;20190;-77
2022/05/05 01:21:25;;;;;;;18.23;11.53;;;;;11.40;101468.00;;;;10418095;28;20686;-78
2022/05/05 01:31:48;;;;;;;19.77;11.10;;;;;11.40;101468.00;;;;10459985;28;20218;-77
2022/05/05 01:36:50;;;;;;;16.73;10.40;;;;;11.50;101469.00;;;;10425955;28;20522;-77
2022/05/05 01:41:52;;;;;;;20.73;11.90;;;;;11.50;101470.00;;;;10404761;28;20204;-77
2022/05/05 01:46:54;;;;;;;15.47;10.17;;;;;11.50;101479.00;;;;10428794;28;20225;-77
2022/05/05 01:51:55;;;;;;;13.53;10.43;;;;;11.40;101477.00;;;;10429758;28;20683;-77
2022/05/05 01:56:58;;;;;;;17.90;10.80;;;;;11.30;101479.00;;;;10411999;28;20190;-77
2022/05/05 02:02:00;;;;;;;17.73;10.83;;;;;11.30;101469.00;;;;10417773;28;20201;-77
2022/05/05 02:07:03;;;;;;;17.03;10.63;;;;;11.10;101476.00;;;;10466680;28;20556;-77
2022/05/05 02:12:06;;;;;;;14.93;10.00;;;;;11.00;101474.00;;;;10445075;28;20224;-76
2022/05/05 02:17:10;;;;;;;14.90;10.70;;;;;11.00;101474.00;;;;10407976;28;20221;-77
2022/05/05 02:22:12;;;;;;;14.20;10.63;;;;;10.90;101479.00;;;;10424725;28;20187;-77
2022/05/05 02:27:14;;;;;;;17.63;11.43;;;;;10.90;101480.00;;;;10408802;28;20649;-77
2022/05/05 02:32:17;;;;;;;21.03;11.90;;;;;11.00;101482.00;;;;10435736;28;20214;-77
2022/05/05 02:42:39;;;;;;;20.67;13.43;;;;;11.30;101475.00;;;;10441759;28;20198;-77
2022/05/05 02:47:41;;;;;;;19.83;12.40;;;;;11.40;101473.00;;;;10442951;28;20189;-77
2022/05/05 02:52:43;;;;;;;16.87;11.87;;;;;11.40;101479.00;;;;10424458;28;20202;-77
2022/05/05 02:57:45;;;;;;;18.20;12.83;;;;;11.50;101483.00;;;;10440512;28;20182;-77
2022/05/05 03:02:47;;;;;;;21.67;14.33;;;;;11.50;101476.00;;;;10443389;28;20183;-77
2022/05/05 03:07:49;;;;;;;19.50;11.93;;;;;11.50;101470.00;;;;10407892;28;20202;-77
2022/05/05 03:12:52;;;;;;;21.80;14.37;;;;;11.60;101478.00;;;;10430824;28;20202;-77
2022/05/05 03:17:53;;;;;;;23.13;13.73;;;;;11.60;101480.00;;;;10407448;28;20699;-77
2022/05/05 03:22:55;;;;;;;23.70;15.57;;;;;11.60;101482.00;;;;10440818;28;20192;-77
2022/05/05 03:27:57;;;;;;;24.70;15.57;;;;;11.70;101488.00;;;;10433161;28;20716;-77
2022/05/05 03:32:59;;;;;;;23.90;16.73;;;;;11.70;101488.00;;;;10406514;28;20612;-77
2022/05/05 03:38:01;;;;;;;31.83;19.60;;;;;11.70;101492.00;;;;10455405;28;20194;-77
2022/05/05 03:43:04;;;;;;;35.57;21.30;;;;;11.60;101491.00;;;;10427015;28;20191;-79
2022/05/05 03:48:06;;;;;;;33.67;22.67;;;;;11.40;101497.00;;;;10424987;28;20193;-78
2022/05/05 03:53:08;;;;;;;42.53;25.87;;;;;11.20;101493.00;;;;10422724;28;20577;-78
2022/05/05 03:58:10;;;;;;;41.20;25.80;;;;;11.20;101492.00;;;;10419647;28;20206;-77
2022/05/05 04:03:30;;;;;;;43.57;25.60;;;;;11.20;101494.00;;;;10410164;28;20237;-77
2022/05/05 04:08:37;;;;;;;40.83;28.30;;;;;11.10;101501.00;;;;10446087;28;20209;-76
2022/05/05 04:13:39;;;;;;;49.40;30.77;;;;;11.10;101502.00;;;;10432818;28;20218;-77
2022/05/05 04:18:43;;;;;;;51.97;31.00;;;;;11.10;101517.00;;;;10433514;28;20201;-77
2022/05/05 04:23:45;;;;;;;51.17;31.33;;;;;11.10;101518.00;;;;10415430;28;20252;-78
2022/05/05 04:28:48;;;;;;;50.53;31.63;;;;;11.10;101523.00;;;;10449000;28;20189;-77
2022/05/05 04:33:50;;;;;;;53.37;32.83;;;;;11.10;101520.00;;;;10416100;28;20238;-78
2022/05/05 04:38:52;;;;;;;52.00;34.00;;;;;11.20;101526.00;;;;10433032;28;20234;-77
2022/05/05 04:43:54;;;;;;;48.63;32.80;;;;;11.20;101531.00;;;;10400174;28;20194;-76
2022/05/05 04:48:56;;;;;;;50.87;32.90;;;;;11.30;101529.00;;;;10458908;28;20186;-78
2022/05/05 04:53:58;;;;;;;51.23;32.20;;;;;11.40;101531.00;;;;10431837;28;20212;-78
2022/05/05 04:59:00;;;;;;;56.53;32.77;;;;;11.40;101536.00;;;;10480337;28;20730;-78
2022/05/05 05:04:02;;;;;;;49.70;32.13;;;;;11.50;101540.00;;;;10415691;28;20186;-78
2022/05/05 05:09:04;;;;;;;55.87;32.17;;;;;11.60;101535.00;;;;10414103;28;20206;-78
2022/05/05 05:14:06;;;;;;;55.30;33.20;;;;;11.70;101544.00;;;;10430626;28;20744;-77
2022/05/05 05:19:08;;;;;;;55.97;32.37;;;;;11.80;101546.00;;;;10410738;28;20190;-78
2022/05/05 05:24:10;;;;;;;52.00;32.40;;;;;12.10;101552.00;;;;10402818;28;20190;-76
2022/05/05 05:29:12;;;;;;;54.63;33.67;;;;;12.40;101558.00;;;;10411849;28;20191;-78
2022/05/05 05:34:14;;;;;;;50.17;32.20;;;;;12.70;101559.00;;;;10398007;28;20233;-77
2022/05/05 05:39:17;;;;;;;52.27;32.67;;;;;12.90;101570.00;;;;10409160;28;20198;-78
2022/05/05 05:44:19;;;;;;;53.40;31.67;;;;;13.00;101572.00;;;;10416303;28;20201;-78
2022/05/05 05:49:21;;;;;;;50.77;31.37;;;;;13.20;101565.00;;;;10411832;28;20204;-78
2022/05/05 05:54:23;;;;;;;50.50;31.57;;;;;13.30;101576.00;;;;10436659;28;20203;-78
2022/05/05 05:59:25;;;;;;;43.50;30.37;;;;;13.30;101577.00;;;;10397043;28;20237;-78
2022/05/05 06:04:27;;;;;;;46.20;29.27;;;;;13.60;101582.00;;;;10424495;28;20211;-78
2022/05/05 06:09:29;;;;;;;46.90;30.97;;;;;13.90;101580.00;;;;10432645;28;20210;-78
2022/05/05 06:14:32;;;;;;;48.83;31.67;;;;;14.10;101594.00;;;;10394777;28;20206;-78
2022/05/05 06:19:34;;;;;;;49.30;33.27;;;;;14.20;101595.00;;;;10406375;28;20683;-78
2022/05/05 06:24:36;;;;;;;46.30;29.57;;;;;14.20;101596.00;;;;10416543;28;20185;-78
2022/05/05 06:29:38;;;;;;;46.70;30.70;;;;;14.40;101600.00;;;;10415562;28;20228;-77
2022/05/05 06:34:39;;;;;;;47.00;31.90;;;;;14.70;101603.00;;;;10382151;28;20222;-78
2022/05/05 06:39:41;;;;;;;41.70;29.00;;;;;14.90;101619.00;;;;10380676;28;20191;-78
2022/05/05 06:44:43;;;;;;;42.00;29.63;;;;;15.00;101619.00;;;;10365108;28;20184;-78
2022/05/05 06:49:45;;;;;;;44.63;29.17;;;;;15.10;101623.00;;;;10364890;28;20223;-77
2022/05/05 06:54:48;;;;;;;39.13;27.77;;;;;15.00;101623.00;;;;10386318;28;20711;-77
2022/05/05 06:59:51;;;;;;;38.77;28.40;;;;;14.80;101630.00;;;;10366291;28;20261;-78
2022/05/05 07:15:37;;;;;;;44.70;27.33;;;;;14.50;101639.00;;;;10345796;28;20271;-78
2022/05/05 07:20:39;;;;;;;46.10;29.70;;;;;14.40;101646.00;;;;10361337;28;20256;-78
2022/05/05 07:25:43;;;;;;;45.70;30.17;;;;;14.60;101650.00;;;;10373680;28;20257;-78
2022/05/05 07:30:46;;;;;;;46.93;30.33;;;;;15.00;101666.00;;;;10370020;28;20279;-78
2022/05/05 07:35:48;;;;;;;43.33;28.73;;;;;15.40;101667.00;;;;10401536;28;20211;-77
2022/05/05 07:40:50;;;;;;;42.97;29.80;;;;;15.60;101664.00;;;;10394426;28;20320;-78
2022/05/05 07:45:52;;;;;;;40.37;28.37;;;;;15.70;101667.00;;;;10402961;28;20222;-78
2022/05/05 07:50:54;;;;;;;41.67;29.53;;;;;15.90;101669.00;;;;10416289;28;20203;-78
2022/05/05 07:55:56;;;;;;;44.70;31.10;;;;;16.20;101676.00;;;;10407249;28;20216;-78
2022/05/05 08:00:58;;;;;;;43.50;30.53;;;;;16.50;101678.00;;;;10433484;28;20289;-78
2022/05/05 08:06:00;;;;;;;43.33;31.53;;;;;16.90;101676.00;;;;10417876;28;20248;-77
2022/05/05 08:11:02;;;;;;;44.43;31.77;;;;;17.70;101683.00;;;;10416081;28;20190;-78
2022/05/05 08:16:05;;;;;;;42.13;30.00;;;;;18.20;101693.00;;;;10412503;28;20210;-77
2022/05/05 08:21:10;;;;;;;37.88;28.52;;;;;18.30;101701.00;;;;10405613;28;20202;-78
2022/05/05 08:31:32;;;;;;;43.85;29.13;;;;;18.60;101701.00;;;;10404750;28;20234;-78
2022/05/05 08:36:34;;;;;;;39.72;29.25;;;;;18.60;101701.00;;;;10424123;28;20293;-78
2022/05/05 08:41:39;;;;;;;38.70;28.77;;;;;18.70;101706.00;;;;10401002;28;20190;-78
2022/05/05 08:46:41;;;;;;;37.30;27.88;;;;;18.80;101712.00;;;;10427548;28;20236;-78
2022/05/05 08:51:46;;;;;;;35.90;26.50;;;;;19.10;101713.00;;;;10414762;28;20190;-78
2022/05/05 08:56:48;;;;;;;35.38;25.95;;;;;20.50;101724.00;;;;10423386;28;20228;-78
2022/05/05 09:01:51;;;;;;;33.72;25.13;;;;;21.90;101730.00;;;;10429097;28;20196;-77
2022/05/05 09:06:59;;;;;;;27.23;21.98;;;;;22.60;101714.00;;;;10413163;28;20242;-77
2022/05/05 09:12:12;;;;;;;25.30;21.48;;;;;22.60;101738.00;;;;10445185;28;20186;-77
2022/05/05 09:17:20;;;;;;;29.48;23.83;;;;;22.40;101736.00;;;;10413256;28;20693;-78
2022/05/05 09:22:27;;;;;;;31.25;23.38;;;;;22.60;101730.00;;;;10414597;28;20218;-78
2022/05/05 09:27:32;;;;;;;27.58;22.08;;;;;23.00;101740.00;;;;10372165;28;20278;-77
2022/05/05 09:32:40;;;;;;;28.80;23.23;;;;;22.80;101739.00;;;;10418903;28;20331;-77
2022/05/05 09:37:49;;;;;;;25.60;21.40;;;;;22.80;101745.00;;;;10402191;28;20222;-78
2022/05/05 09:42:53;;;;;;;26.80;22.55;;;;;22.70;101741.00;;;;10428264;28;20194;-79
2022/05/05 09:47:58;;;;;;;30.95;24.55;;;;;22.40;101741.00;;;;10426573;28;20201;-78
2022/05/05 09:58:24;;;;;;;32.47;23.98;;;;;21.80;101745.00;;;;10440469;28;20206;-78
2022/05/05 10:09:09;;;;;;;30.23;24.58;;;;;21.50;101743.00;;;;10419447;28;20277;-78
2022/05/05 10:14:13;;;;;;;29.98;24.13;;;;;23.40;101741.00;;;;10424898;28;20210;-78
2022/05/05 10:19:15;;;;;;;29.73;23.58;;;;;24.60;101741.00;;;;10410231;28;20273;-79
2022/05/05 10:24:29;;;;;;;27.52;22.73;;;;;25.20;101737.00;;;;10401997;28;20202;-78
2022/05/05 10:29:30;;;;;;;25.40;19.30;;;;;23.70;101750.00;;;;10424253;28;20297;-78
2022/05/05 10:34:33;;;;;;;25.77;20.95;;;;;24.10;101736.00;;;;10390875;28;20228;-78
2022/05/05 10:39:42;;;;;;;24.25;19.83;;;;;25.50;101746.00;;;;10407112;28;20672;-78
2022/05/05 10:45:06;;;;;;;22.77;19.05;;;;;26.20;101737.00;;;;10426590;28;20830;-76
2022/05/05 10:50:27;;;;;;;22.25;18.88;;;;;27.10;101739.00;;;;10390527;28;20206;-79
2022/05/05 10:55:45;;;;;;;19.35;17.08;;;;;27.80;101733.00;;;;10387087;28;20564;-78
2022/05/05 11:01:09;;;;;;;19.02;15.52;;;;;28.40;101730.00;;;;10396969;28;20194;-78
2022/05/05 11:06:17;;;;;;;22.13;17.42;;;;;28.90;101734.00;;;;10431791;28;20182;-78
2022/05/05 11:22:08;;;;;;;17.88;16.05;;;;;25.10;101723.00;;;;10427788;28;20194;-77
2022/05/05 11:27:22;;;;;;;16.10;14.20;;;;;27.70;101722.00;;;;10405081;28;20194;-77
2022/05/05 11:32:35;;;;;;;15.65;13.85;;;;;27.70;101730.00;;;;10410885;28;20222;-77
2022/05/05 11:37:42;;;;;;;13.27;11.98;;;;;28.50;101709.00;;;;10442087;28;20217;-77
2022/05/05 11:48:17;;;;;;;8.90;8.00;;;;;26.20;101727.00;;;;10405043;28;20220;-77
2022/05/05 11:53:39;;;;;;;10.43;8.95;;;;;25.30;101714.00;;;;10412454;28;20198;-79
2022/05/05 12:04:03;;;;;;;12.20;10.60;;;;;27.60;101717.00;;;;10458491;28;20190;-78
2022/05/05 12:09:07;;;;;;;12.57;9.13;;;;;26.30;101726.00;;;;10401501;28;20198;-80
2022/05/05 12:14:10;;;;;;;15.20;10.73;;;;;24.80;101721.00;;;;10444420;28;20212;-78
2022/05/05 12:19:17;;;;;;;14.73;12.57;;;;;22.70;101727.00;;;;10396176;28;20206;-78
2022/05/05 12:24:45;;;;;;;14.80;13.27;;;;;20.80;101724.00;;;;10427818;28;20549;-78
2022/05/05 12:29:47;;;;;;;16.58;14.82;;;;;20.10;101725.00;;;;10408590;28;20195;-77
2022/05/05 12:35:01;;;;;;;20.02;16.05;;;;;19.90;101721.00;;;;10440560;28;20218;-77
2022/05/05 12:40:08;;;;;;;19.38;16.38;;;;;19.80;101730.00;;;;10401155;28;20740;-78
2022/05/05 12:45:17;;;;;;;22.98;17.42;;;;;19.60;101732.00;;;;10392974;28;20244;-78
2022/05/05 12:50:36;;;;;;;19.75;17.65;;;;;19.70;101742.00;;;;10410527;28;20281;-78
2022/05/05 13:00:58;;;;;;;17.90;16.00;;;;;20.10;101746.00;;;;10388491;28;20206;-78
2022/05/05 13:06:17;;;;;;;17.88;15.98;;;;;20.30;101743.00;;;;10442817;28;20189;-78
2022/05/05 13:11:25;;;;;;;16.55;14.07;;;;;20.40;101741.00;;;;10433744;28;20278;-77
2022/05/05 13:16:27;;;;;;;13.75;12.32;;;;;20.60;101743.00;;;;10424887;28;20218;-76
2022/05/05 13:21:36;;;;;;;16.55;13.18;;;;;20.90;101747.00;;;;10440028;28;20221;-78
2022/05/05 13:26:42;;;;;;;12.70;10.63;;;;;21.50;101752.00;;;;10402361;28;20191;-77
2022/05/05 13:31:44;;;;;;;12.38;10.32;;;;;22.00;101740.00;;;;10421922;28;20218;-78
2022/05/05 13:36:46;;;;;;;13.55;9.70;;;;;22.60;101741.00;;;;10400474;28;20745;-78
2022/05/05 13:41:48;;;;;;;13.50;10.88;;;;;23.20;101742.00;;;;10396606;28;20194;-78
2022/05/05 13:46:50;;;;;;;11.90;9.15;;;;;23.60;101740.00;;;;10417973;28;20193;-78
2022/05/05 13:51:52;;;;;;;12.68;10.90;;;;;26.90;101717.00;;;;10422982;28;20746;-78
2022/05/05 13:57:12;;;;;;;11.95;10.65;;;;;28.40;101733.00;;;;10397561;28;20285;-77
2022/05/05 14:02:14;;;;;;;13.70;12.30;;;;;30.10;101718.00;;;;10396228;28;20204;-78
2022/05/05 14:07:16;;;;;;;13.90;12.20;;;;;32.30;101720.00;;;;10425416;28;20190;-79
2022/05/05 14:12:18;;;;;;;12.82;11.43;;;;;31.80;101743.00;;;;10430687;28;20201;-77
2022/05/05 14:17:22;;;;;;;12.82;11.35;;;;;28.40;101728.00;;;;10407760;28;20226;-78
2022/05/05 14:22:24;;;;;;;21.27;19.00;;;;;25.40;101751.00;;;;10390298;28;20207;-77
2022/05/05 14:27:26;;;;;;;19.83;17.58;;;;;22.90;101738.00;;;;10404622;28;20205;-78
2022/05/05 14:32:28;;;;;;;20.25;16.17;;;;;23.00;101739.00;;;;10435121;28;20276;-77
2022/05/05 14:37:31;;;;;;;19.75;15.63;;;;;25.70;101742.00;;;;10396309;28;20543;-77
2022/05/05 14:42:33;;;;;;;20.85;18.42;;;;;22.60;101745.00;;;;10445922;28;20549;-78
2022/05/05 14:47:37;;;;;;;20.13;18.05;;;;;21.90;101752.00;;;;10411676;28;20236;-78
2022/05/05 14:52:41;;;;;;;14.20;12.77;;;;;21.80;101760.00;;;;10451151;28;20202;-78
2022/05/05 14:57:45;;;;;;;12.40;11.20;;;;;21.10;101762.00;;;;10433199;28;20752;-76
2022/05/05 15:02:46;;;;;;;13.35;11.95;;;;;20.70;101751.00;;;;10425590;28;20240;-78
2022/05/05 15:07:49;;;;;;;15.00;13.60;;;;;20.80;101754.00;;;;10389553;28;20198;-78
2022/05/05 15:12:52;;;;;;;13.70;11.95;;;;;20.90;101759.00;;;;10421122;28;20217;-77
2022/05/05 15:17:53;;;;;;;14.73;13.20;;;;;22.00;101756.00;;;;10393636;28;20222;-78
2022/05/05 15:22:57;;;;;;;15.18;13.10;;;;;21.90;101768.00;;;;10369226;28;20198;-77
2022/05/05 15:27:58;;;;;;;14.82;13.00;;;;;21.70;101764.00;;;;10412297;28;20217;-78
2022/05/05 15:33:01;;;;;;;16.35;13.90;;;;;21.50;101762.00;;;;10413568;28;20234;-79
2022/05/05 15:38:04;;;;;;;16.60;12.63;;;;;24.10;101753.00;;;;10441399;28;20206;-77
2022/05/05 15:43:07;;;;;;;14.88;13.27;;;;;26.20;101752.00;;;;10414451;28;20190;-77
2022/05/05 15:48:09;;;;;;;15.50;11.13;;;;;24.80;101768.00;;;;10424475;28;20179;-79
2022/05/05 15:53:11;;;;;;;14.48;11.63;;;;;23.90;101778.00;;;;10425171;28;20256;-78
2022/05/05 15:58:13;;;;;;;15.88;11.88;;;;;22.50;101779.00;;;;10421014;28;20218;-78
2022/05/05 16:03:18;;;;;;;15.57;11.20;;;;;21.40;101784.00;;;;10431727;28;20215;-78
2022/05/05 16:08:20;;;;;;;15.75;11.35;;;;;20.80;101783.00;;;;10440196;28;20201;-78
2022/05/05 16:13:22;;;;;;;12.68;10.68;;;;;20.50;101793.00;;;;10459104;28;20197;-78
2022/05/05 16:18:25;;;;;;;13.15;10.68;;;;;20.20;101786.00;;;;10474548;28;20193;-78
2022/05/05 16:23:27;;;;;;;17.20;12.70;;;;;19.80;101792.00;;;;10422646;28;20193;-77
2022/05/05 16:33:50;;;;;;;13.32;11.48;;;;;19.50;101802.00;;;;10446673;28;20568;-78
2022/05/05 16:38:52;;;;;;;14.10;12.15;;;;;19.40;101792.00;;;;10449187;28;20248;-79
2022/05/05 16:43:54;;;;;;;20.38;12.45;;;;;19.30;101805.00;;;;10435189;28;20191;-78
2022/05/05 16:48:57;;;;;;;13.85;11.30;;;;;19.10;101807.00;;;;10453221;28;20194;-78
2022/05/05 16:53:59;;;;;;;14.32;12.57;;;;;19.00;101808.00;;;;10432413;28;20615;-78
2022/05/05 16:59:03;;;;;;;16.40;13.40;;;;;18.80;101806.00;;;;10447368;28;20187;-79
2022/05/05 17:04:05;;;;;;;16.33;13.57;;;;;18.70;101803.00;;;;10416786;28;20190;-78
2022/05/05 17:09:07;;;;;;;17.15;12.65;;;;;18.80;101816.00;;;;10422370;28;20217;-77
2022/05/05 17:14:09;;;;;;;15.73;12.85;;;;;18.70;101811.00;;;;10444856;28;20292;-78
2022/05/05 17:19:11;;;;;;;16.58;12.75;;;;;18.50;101817.00;;;;10413738;28;20198;-77
2022/05/05 17:24:13;;;;;;;17.67;13.65;;;;;18.50;101820.00;;;;10425673;28;20289;-77
2022/05/05 17:29:16;;;;;;;20.40;14.00;;;;;18.40;101815.00;;;;10423325;28;20376;-78
2022/05/05 17:34:18;;;;;;;16.85;13.43;;;;;18.30;101832.00;;;;10415805;28;20327;-78
2022/05/05 17:39:20;;;;;;;16.35;12.38;;;;;18.20;101831.00;;;;10442438;28;20572;-78
2022/05/05 17:55:04;;;;;;;16.85;12.82;;;;;17.90;101830.00;;;;10436650;28;20202;-77
2022/05/05 18:00:06;;;;;;;16.05;12.30;;;;;17.90;101826.00;;;;10414332;28;20251;-77
2022/05/05 18:05:14;;;;;;;15.43;12.10;;;;;17.90;101839.00;;;;10398630;28;20190;-78
2022/05/05 18:10:16;;;;;;;18.73;12.45;;;;;17.90;101846.00;;;;10434373;28;20558;-77
2022/05/05 18:15:18;;;;;;;17.83;11.82;;;;;17.80;101846.00;;;;10425016;28;20672;-78
2022/05/05 18:20:21;;;;;;;15.15;10.77;;;;;17.70;101845.00;;;;10429565;28;20248;-78
2022/05/05 18:25:23;;;;;;;16.90;11.15;;;;;17.60;101855.00;;;;10408714;28;20205;-78
2022/05/05 18:30:25;;;;;;;14.20;10.35;;;;;17.50;101849.00;;;;10447804;28;20217;-77
2022/05/05 18:35:28;;;;;;;13.00;10.07;;;;;17.40;101860.00;;;;10455687;28;20201;-78
2022/05/05 18:40:30;;;;;;;12.68;9.55;;;;;17.20;101871.00;;;;10438183;28;20199;-76
2022/05/05 18:45:36;;;;;;;14.60;10.10;;;;;17.00;101874.00;;;;10425585;28;20281;-78
2022/05/05 18:50:38;;;;;;;13.13;10.23;;;;;16.80;101876.00;;;;10434630;28;20691;-78
2022/05/05 18:55:40;;;;;;;15.03;9.90;;;;;16.50;101885.00;;;;10402521;28;20206;-78
2022/05/05 19:00:42;;;;;;;14.77;10.43;;;;;16.20;101884.00;;;;10432598;28;20188;-77
2022/05/05 19:05:44;;;;;;;15.23;10.57;;;;;16.00;101894.00;;;;10394295;28;20194;-77
2022/05/05 19:10:46;;;;;;;15.70;11.10;;;;;15.80;101911.00;;;;10421662;28;20182;-78
2022/05/05 19:15:48;;;;;;;13.27;10.23;;;;;15.60;101917.00;;;;10449073;28;20210;-78
2022/05/05 19:20:51;;;;;;;16.00;10.67;;;;;15.40;101922.00;;;;10434909;28;20274;-77
2022/05/05 19:25:53;;;;;;;14.67;10.30;;;;;15.20;101923.00;;;;10438929;28;20194;-78
2022/05/05 19:30:55;;;;;;;17.43;11.13;;;;;15.00;101935.00;;;;10403666;28;20624;-77
2022/05/05 19:35:58;;;;;;;14.70;10.90;;;;;14.80;101943.00;;;;10441586;28;20314;-78
2022/05/05 19:41:01;;;;;;;16.60;10.80;;;;;14.60;101939.00;;;;10422971;28;20200;-79
2022/05/05 19:46:03;;;;;;;15.07;10.27;;;;;14.40;101943.00;;;;10424552;28;20183;-78
2022/05/05 20:01:47;;;;;;;18.00;10.30;;;;;13.90;101962.00;;;;10453782;28;20551;-78
2022/05/05 20:12:12;;;;;;;13.23;9.37;;;;;13.70;101971.00;;;;10440571;28;20209;-78
2022/05/05 20:17:15;;;;;;;15.10;10.27;;;;;13.50;101978.00;;;;10410617;28;20260;-78
2022/05/05 20:22:17;;;;;;;18.63;11.10;;;;;13.40;101983.00;;;;10425845;28;20209;-78
2022/05/05 20:27:18;;;;;;;11.60;8.70;;;;;13.30;101984.00;;;;10415304;28;20332;-78
2022/05/05 20:32:20;;;;;;;14.00;8.63;;;;;13.20;101989.00;;;;10439956;28;20226;-79
2022/05/05 20:37:23;;;;;;;13.57;9.63;;;;;13.10;101989.00;;;;10439712;28;20673;-78
2022/05/05 20:42:25;;;;;;;14.27;9.47;;;;;13.00;101996.00;;;;10423627;28;20190;-78
2022/05/05 20:47:27;;;;;;;14.37;8.80;;;;;12.80;101998.00;;;;10384538;28;20218;-77
2022/05/05 20:52:30;;;;;;;14.73;9.50;;;;;12.60;101998.00;;;;10389851;28;20656;-79
2022/05/05 20:57:33;;;;;;;14.80;9.80;;;;;12.60;101998.00;;;;10420515;28;20198;-78
2022/05/05 21:02:35;;;;;;;15.27;9.67;;;;;12.50;102001.00;;;;10412588;28;20208;-79
2022/05/05 21:07:38;;;;;;;14.07;9.93;;;;;12.40;102000.00;;;;10410215;28;20209;-78
2022/05/05 21:12:39;;;;;;;17.50;10.70;;;;;12.30;101997.00;;;;10422719;28;20212;-78
2022/05/05 21:17:41;;;;;;;13.67;10.23;;;;;12.20;102003.00;;;;10443255;28;20618;-79
2022/05/05 21:28:12;;;;;;;20.47;11.27;;;;;12.10;101999.00;;;;10420971;28;20205;-78
2022/05/05 21:33:14;;;;;;;17.43;11.87;;;;;12.00;102007.00;;;;10382708;28;20230;-79
2022/05/05 21:38:16;;;;;;;20.77;11.83;;;;;11.90;102004.00;;;;10374270;28;20533;-79
2022/05/05 21:43:20;;;;;;;18.90;12.40;;;;;11.90;102004.00;;;;10383111;28;20187;-78
2022/05/05 21:48:22;;;;;;;18.90;12.40;;;;;11.70;102002.00;;;;10365179;28;20198;-79
2022/05/05 21:53:25;;;;;;;17.40;11.97;;;;;11.60;101999.00;;;;10360364;28;20207;-79
2022/05/05 21:58:30;;;;;;;17.80;12.60;;;;;11.50;102009.00;;;;10361808;28;20744;-77
2022/05/05 22:03:38;;;;;;;24.70;13.57;;;;;11.40;102009.00;;;;10390880;28;20306;-78
2022/05/05 22:08:40;;;;;;;25.77;14.00;;;;;11.30;102014.00;;;;10386334;28;20202;-77
2022/05/05 22:13:42;;;;;;;22.97;13.57;;;;;11.30;102011.00;;;;10375684;28;20195;-78
2022/05/05 22:18:44;;;;;;;21.07;13.93;;;;;11.20;102012.00;;;;10379861;28;20229;-78
2022/05/05 22:23:46;;;;;;;25.13;15.30;;;;;11.10;102011.00;;;;10355598;28;20246;-78
2022/05/05 22:28:48;;;;;;;25.40;15.17;;;;;11.10;102022.00;;;;10347198;28;20283;-78
2022/05/05 22:33:49;;;;;;;23.97;15.03;;;;;11.00;102017.00;;;;10383693;28;20285;-79
2022/05/05 22:38:51;;;;;;;25.47;15.37;;;;;10.90;102024.00;;;;10382974;28;20570;-79
2022/05/05 22:43:55;;;;;;;25.87;15.73;;;;;10.80;102020.00;;;;10359670;28;20250;-78
2022/05/05 22:54:17;;;;;;;25.87;15.80;;;;;10.80;102015.00;;;;10440121;28;20248;-78
2022/05/05 22:59:19;;;;;;;28.47;15.70;;;;;10.70;102012.00;;;;10352162;28;20681;-79
2022/05/05 23:04:21;;;;;;;20.63;14.83;;;;;10.70;102022.00;;;;10452701;22;20213;-79
2022/05/05 23:09:23;;;;;;;26.67;16.47;;;;;10.60;102021.00;;;;10394999;28;20301;-78
2022/05/05 23:14:25;;;;;;;27.83;16.03;;;;;10.60;102023.00;;;;10433247;28;20568;-79
2022/05/05 23:19:27;;;;;;;25.57;15.60;;;;;10.50;102029.00;;;;10427083;28;20570;-79
2022/05/05 23:24:29;;;;;;;24.10;16.13;;;;;10.40;102031.00;;;;10450956;28;20281;-78
2022/05/05 23:29:35;;;;;;;26.07;16.40;;;;;10.40;102025.00;;;;10417740;28;20255;-79
2022/05/05 23:39:58;;;;;;;25.90;16.53;;;;;10.20;102026.00;;;;10436745;28;20552;-79
2022/05/05 23:45:00;;;;;;;27.70;17.43;;;;;10.10;102029.00;;;;10401389;28;20252;-78
2022/05/05 23:50:05;;;;;;;30.97;17.93;;;;;10.00;102027.00;;;;10395154;28;20732;-77
2022/05/05 23:55:08;;;;;;;25.37;16.73;;;;;9.90;102039.00;;;;10418089;28;20234;-79
